Data for 05/26/2005

Time Sea-Level Adjusted Pressure Absolute Pressure Temperature Relative Humidity Dew Point   
(mb) (inHg) (mb) (inHg) (C) (F) (%) (C) (F)
00:05 1027 30.33 856 25.28 5.2 41.3 68 -0.3 31.5
00:10 1027 30.33 856 25.28 5.3 41.6 68 -0.1 31.9
00:15 1027 30.33 856 25.28 5.1 41.1 69 -0 31.9
00:20 1027 30.33 856 25.28 4.9 40.8 70 -0 31.9
00:25 1027 30.33 856 25.28 4.8 40.6 70 -0.2 31.7
00:30 1027 30.33 856 25.28 4.7 40.4 70 -0.3 31.4
00:35 1027 30.33 856 25.28 4.4 39.9 70 -0.6 31
00:40 1027 30.33 856 25.28 4.4 39.8 70 -0.7 30.8
00:45 1027 30.33 856 25.28 4.5 40.2 69 -0.6 30.9
00:50 1027 30.33 856 25.28 4.6 40.3 68 -0.7 30.7
00:55 1027 30.33 856 25.28 4.7 40.4 67 -0.9 30.3
01:00 1027 30.33 856 25.28 4.9 40.7 65 -1.1 30
01:05 1027 30.33 856 25.28 4.9 40.9 65 -1.1 30
01:10 1027 30.33 856 25.28 5.1 41.1 65 -0.9 30.3
01:15 1027 30.33 856 25.28 4.9 40.9 65 -1 30.2
01:20 1027 30.33 856 25.28 4.6 40.3 65 -1.3 29.7
01:25 1027 30.33 856 25.28 4.5 40.1 66 -1.2 29.8
01:30 1027 30.33 856 25.28 4.5 40.1 66 -1.3 29.7
01:35 1027 30.33 856 25.28 4.4 39.9 65 -1.5 29.2
01:40 1027 30.33 856 25.28 4.4 40 64 -1.7 28.9
01:45 1027 30.33 856 25.28 4.6 40.4 63 -1.8 28.8
01:50 1027 30.33 856 25.28 4.6 40.4 64 -1.7 29
01:55 1027 30.33 856 25.28 4.6 40.3 65 -1.4 29.4
02:00 1027 30.33 856 25.28 4.7 40.4 66 -1.2 29.8
02:05 1027 30.33 856 25.28 4.5 40.1 65 -1.5 29.3
02:10 1027 30.33 856 25.28 4.4 39.9 65 -1.7 28.9
02:15 1027 30.33 856 25.28 3.9 39.1 67 -1.6 29.1
02:20 1027 30.33 856 25.28 4 39.2 65 -2 28.4
02:25 1027 30.33 856 25.28 4.1 39.4 65 -1.9 28.5
02:30 1027 30.33 856 25.28 4.3 39.7 65 -1.7 29
02:35 1027 30.33 856 25.28 4.4 39.9 65 -1.5 29.3
02:40 1027 30.33 856 25.28 4.6 40.3 62 -1.9 28.5
02:45 1027 30.33 856 25.28 5 41 60 -2.1 28.2
02:50 1027 30.33 856 25.28 5.1 41.1 60 -2 28.3
02:55 1027 30.33 856 25.28 4.9 40.9 60 -2.1 28.2
03:00 1027 30.33 856 25.28 4.8 40.6 61 -2.1 28.2
03:05 1027 30.33 856 25.28 4.7 40.5 61 -2.2 28.1
03:10 1027 30.33 856 25.28 4.8 40.6 61 -2.1 28.3
03:15 1027 30.33 856 25.28 4.3 39.7 64 -1.9 28.5
03:20 1027 30.33 856 25.28 3.6 38.4 66 -2.2 28.1
03:25 1027 30.33 856 25.28 3.6 38.5 65 -2.4 27.6
03:30 1027 30.33 856 25.28 4.1 39.4 62 -2.6 27.4
03:35 1027 30.33 856 25.28 4.6 40.4 60 -2.4 27.7
03:40 1027 30.33 856 25.28 3.7 38.7 68 -1.7 29
03:45 1027 30.33 856 25.28 3.3 37.9 67 -2.3 27.8
03:50 1027 30.33 856 25.28 3.9 39 63 -2.5 27.6
03:55 1027 30.33 856 25.28 3.9 39.1 63 -2.6 27.4
04:00 1027 30.33 856 25.28 4.2 39.5 63 -2.2 28
04:05 1027 30.33 856 25.28 4.2 39.5 61 -2.7 27.2
04:10 1027 30.33 856 25.28 4.2 39.5 62 -2.5 27.4
04:15 1027 30.33 856 25.28 4.2 39.6 61 -2.5 27.4
04:20 1027 30.33 856 25.28 4.1 39.4 64 -2.1 28.2
04:25 1027 30.33 856 25.28 3.7 38.7 63 -2.6 27.3
04:30 1027 30.33 856 25.28 3.5 38.2 65 -2.4 27.7
04:35 1027 30.33 856 25.28 3.3 38 66 -2.3 27.8
04:40 1027 30.33 856 25.28 3.4 38.1 65 -2.6 27.3
04:45 1027 30.33 856 25.28 3.8 38.8 62 -2.8 26.9
04:50 1027 30.33 856 25.28 3.5 38.3 67 -2.1 28.2
04:55 1027 30.33 856 25.28 3.2 37.7 66 -2.5 27.5
05:00 1027 30.33 856 25.28 3.1 37.6 68 -2.3 27.8
05:05 1027 30.33 856 25.28 3.2 37.8 66 -2.6 27.3
05:10 1027 30.33 856 25.28 3.8 38.8 62 -2.7 27.1
05:15 1027 30.33 856 25.28 4.1 39.3 63 -2.4 27.8
05:20 1027 30.33 856 25.28 4 39.2 62 -2.7 27.2
05:25 1027 30.33 856 25.28 3.6 38.5 66 -2.1 28.3
05:30 1027 30.33 856 25.28 2.4 36.4 71 -2.2 28
05:35 1027 30.33 856 25.28 2.5 36.4 69 -2.7 27.2
05:40 1027 30.33 856 25.28 2.9 37.2 67 -2.6 27.3
05:45 1027 30.33 856 25.28 3.1 37.5 67 -2.5 27.5
05:50 1027 30.33 856 25.28 3.3 38 64 -2.8 27
05:55 1027 30.33 856 25.28 3.5 38.2 64 -2.7 27.2
06:00 1027 30.33 856 25.28 4.1 39.4 61 -2.8 27
06:05 1027 30.33 856 25.28 4.1 39.4 61 -2.6 27.3
06:10 1027 30.33 856 25.28 4.5 40 60 -2.7 27.1
06:15 1027 30.33 856 25.28 4.8 40.6 60 -2.2 28
06:20 1027 30.33 856 25.28 4.2 39.5 63 -2.2 28
06:25 1027 30.33 856 25.28 4.3 39.7 62 -2.3 27.9
06:30 1027 30.33 856 25.28 4.5 40.1 62 -2.1 28.2
06:35 1027 30.33 856 25.28 4.4 40 63 -1.9 28.5
06:40 1027 30.33 856 25.28 4.2 39.5 64 -2 28.4
06:45 1027 30.33 856 25.28 4 39.1 65 -1.9 28.5
06:50 1027 30.33 856 25.28 3.8 38.9 67 -1.7 28.9
06:55 1027 30.33 856 25.28 3.9 39 66 -1.8 28.7
07:00 1027 30.33 856 25.28 4.2 39.5 65 -1.9 28.6
07:05 1027 30.33 856 25.28 4.5 40 65 -1.6 29.2
07:10 1027 30.33 856 25.28 4.6 40.3 64 -1.5 29.3
07:15 1027 30.33 856 25.28 5.1 41.2 62 -1.5 29.3
07:20 1027 30.33 856 25.28 5.6 42 61 -1.3 29.7
07:25 1027 30.33 856 25.28 6.4 43.5 58 -1.4 29.6
07:30 1027 30.33 856 25.28 6.7 44.1 56 -1.3 29.7
07:35 1027 30.33 856 25.28 6.8 44.3 56 -1.4 29.5
07:40 1027 30.33 856 25.28 7.5 45.4 54 -1.2 29.8
07:45 1027 30.33 856 25.28 7.9 46.3 52 -1.2 29.8
07:50 1027 30.33 856 25.28 8.5 47.3 49 -1.5 29.3
07:55 1027 30.33 856 25.28 9.1 48.4 49 -1.1 30
08:00 1027 30.33 856 25.28 9.2 48.6 48 -1.1 30
08:05 1027 30.33 856 25.28 9.4 48.9 48 -1.1 30.1
08:10 1027 30.33 856 25.28 9.8 49.7 47 -1 30.2
08:15 1027 30.33 856 25.28 10.2 50.4 45 -1.2 29.8
08:20 1027 30.33 857 25.31 10.3 50.5 45 -1 30.2
08:25 1027 30.33 857 25.31 10.1 50.2 46 -0.9 30.4
08:30 1027 30.33 857 25.31 10.5 51 42 -1.9 28.6
08:35 1027 30.33 857 25.31 10.7 51.2 41 -1.9 28.6
08:40 1027 30.33 857 25.31 10.9 51.6 42 -1.6 29.2
08:45 1027 30.33 857 25.31 11.4 52.5 40 -1.5 29.2
08:50 1027 30.33 857 25.31 11.1 52.1 41 -1.4 29.4
08:55 1027 30.33 857 25.31 11.3 52.3 42 -1.2 29.8
09:00 1027 30.33 857 25.31 11.4 52.6 41 -1.2 29.8
09:05 1028 30.36 857 25.31 11.7 53 42 -0.7 30.7
09:10 1027 30.33 857 25.31 12 53.6 42 -0.6 31
09:15 1028 30.36 857 25.31 11.8 53.3 41 -0.8 30.6
09:20 1028 30.36 857 25.31 11.8 53.3 42 -0.6 31
09:25 1028 30.36 857 25.31 11.3 52.3 43 -0.7 30.8
09:30 1028 30.36 857 25.31 11.5 52.7 43 -0.7 30.7
09:35 1027 30.33 857 25.31 11.6 52.8 43 -0.4 31.3
09:40 1028 30.36 857 25.31 11.9 53.5 43 -0.2 31.6
09:45 1027 30.33 857 25.31 12.4 54.2 42 -0.2 31.6
09:50 1027 30.33 857 25.31 12.1 53.8 43 -0.1 31.8
09:55 1027 30.33 857 25.31 12.2 53.9 41 -0.5 31.1
10:00 1027 30.33 857 25.31 12.6 54.6 39 -0.9 30.3
10:05 1027 30.33 857 25.31 12.2 54 41 -0.7 30.7
10:10 1027 30.33 857 25.31 12.7 54.9 39 -0.8 30.5
10:15 1027 30.33 856 25.28 12.9 55.1 39 -0.6 30.9
10:20 1027 30.33 856 25.28 13 55.4 40 -0.2 31.6
10:25 1027 30.33 856 25.28 13.1 55.5 40 -0.1 31.9
10:30 1027 30.33 856 25.28 12.1 53.9 42 -0.2 31.6
10:35 1027 30.33 856 25.28 13.1 55.6 37 -1.1 30.1
10:40 1027 30.33 856 25.28 13.6 56.4 38 -0.5 31.2
10:45 1027 30.33 856 25.28 13.6 56.6 37 -0.8 30.6
10:50 1027 30.33 856 25.28 13.8 56.8 37 -0.6 30.9
10:55 1027 30.33 856 25.28 14.1 57.4 37 -0.4 31.2
11:00 1027 30.33 856 25.28 14.3 57.7 35 -0.7 30.7
11:05 1027 30.33 856 25.28 14.2 57.6 35 -0.8 30.5
11:10 1027 30.33 856 25.28 14 57.3 35 -1.1 30
11:15 1027 30.33 856 25.28 14.5 58.1 35 -0.5 31.1
11:20 1027 30.33 856 25.28 13.6 56.5 38 -0.5 31.1
11:25 1027 30.33 856 25.28 14 57.3 36 -0.9 30.4
11:30 1027 30.33 856 25.28 15 59 35 -0.3 31.5
11:35 1027 30.33 856 25.28 15.5 59.8 33 -0.7 30.7
11:40 1027 30.33 856 25.28 15.6 60 35 0.1 32.2
11:45 1027 30.33 856 25.28 15.4 59.8 33 -0.6 30.9
11:50 1027 30.33 856 25.28 15.3 59.6 34 -0.3 31.5
11:55 1027 30.33 856 25.28 15.2 59.3 34 -0.5 31
12:00 1027 30.33 856 25.28 15.2 59.4 34 -0.4 31.2
12:05 1027 30.33 856 25.28 15.7 60.2 30 -1.6 29.1
12:10 1026 30.3 856 25.28 15.5 60 33 -0.4 31.2
12:15 1026 30.3 856 25.28 15.3 59.5 31 -1.7 29
12:20 1026 30.3 856 25.28 15.8 60.4 30 -1.8 28.7
12:25 1026 30.3 856 25.28 15.7 60.2 31 -1.4 29.4
12:30 1026 30.3 856 25.28 16.1 60.9 28 -2.3 27.8
12:35 1026 30.3 856 25.28 16.6 61.8 28 -2.1 28.2
12:40 1026 30.3 856 25.28 16.7 62.1 28 -1.6 29.1
12:45 1026 30.3 855 25.25 16.6 61.9 28 -1.6 29
12:50 1026 30.3 855 25.25 16.4 61.5 27 -2.7 27.2
12:55 1026 30.3 855 25.25 16.5 61.6 28 -2.2 28.1
13:00 1026 30.3 855 25.25 16.5 61.7 27 -2.6 27.2
13:05 1026 30.3 855 25.25 16.6 62 26 -2.8 26.9
13:10 1026 30.3 855 25.25 16.6 61.9 27 -2.6 27.4
13:15 1026 30.3 855 25.25 16.9 62.4 25 -2.9 26.8
13:20 1026 30.3 855 25.25 16.6 61.9 25 -3.4 25.8
13:25 1026 30.3 855 25.25 17 62.7 25 -2.9 26.8
13:30 1026 30.3 855 25.25 16.9 62.5 25 -3.1 26.4
13:35 1026 30.3 855 25.25 17.1 62.7 23 -4 24.8
13:40 1026 30.3 855 25.25 17.2 63 24 -3.5 25.6
13:45 1026 30.3 855 25.25 17.3 63.1 23 -3.8 25.2
13:50 1026 30.3 855 25.25 17.4 63.3 24 -3.1 26.3
13:55 1026 30.3 855 25.25 17.5 63.6 23 -3.6 25.6
14:00 1026 30.3 855 25.25 17.5 63.5 22 -4.4 24.1
14:05 1026 30.3 855 25.25 17.4 63.3 25 -2.9 26.8
14:10 1026 30.3 855 25.25 17.8 64 22 -4.2 24.4
14:15 1026 30.3 855 25.25 18.1 64.5 22 -4.1 24.6
14:20 1026 30.3 855 25.25 17.8 64.1 23 -3.3 26
14:25 1025 30.27 855 25.25 17.6 63.8 24 -2.9 26.7
14:30 1025 30.27 855 25.25 17.6 63.7 24 -3.2 26.3
14:35 1026 30.3 855 25.25 18.4 65.1 22 -3.4 25.8
14:40 1026 30.3 855 25.25 18.1 64.6 23 -3.5 25.8
14:45 1026 30.3 855 25.25 18 64.4 22 -4.1 24.6
14:50 1025 30.27 855 25.25 18.4 65.1 22 -3.6 25.6
14:55 1025 30.27 855 25.25 18.4 65.2 23 -2.9 26.9
15:00 1025 30.27 855 25.25 17.4 63.3 25 -2.9 26.8
15:05 1025 30.27 855 25.25 17.3 63.1 24 -3.6 25.6
15:10 1025 30.27 855 25.25 18.1 64.5 23 -3.2 26.3
15:15 1025 30.27 854 25.22 18.5 65.3 22 -3.4 25.8
15:20 1025 30.27 854 25.22 18.2 64.8 23 -3.1 26.4
15:25 1025 30.27 854 25.22 17.9 64.3 24 -2.8 27
15:30 1025 30.27 854 25.22 18.4 65 23 -3.1 26.4
15:35 1025 30.27 854 25.22 17.8 64 25 -2.3 27.9
15:40 1025 30.27 854 25.22 17.7 63.8 24 -3 26.7
15:45 1025 30.27 854 25.22 17.8 64.1 25 -2.5 27.4
15:50 1025 30.27 854 25.22 18 64.3 23 -3.2 26.2
15:55 1025 30.27 854 25.22 18.2 64.8 23 -3 26.6
16:00 1025 30.27 854 25.22 17.9 64.3 25 -2.1 28.2
16:05 1025 30.27 854 25.22 17.5 63.6 24 -3.1 26.4
16:10 1025 30.27 854 25.22 17.5 63.5 24 -3.1 26.4
16:15 1025 30.27 854 25.22 18.3 65 23 -3 26.6
16:20 1025 30.27 854 25.22 18.1 64.6 23 -3.3 26.1
16:25 1025 30.27 854 25.22 17.7 63.9 24 -3.2 26.2
16:30 1025 30.27 854 25.22 17.6 63.6 24 -2.9 26.7
16:35 1025 30.27 854 25.22 18.5 65.3 21 -4 24.7
16:40 1025 30.27 854 25.22 18.5 65.3 21 -4.1 24.7
16:45 1025 30.27 854 25.22 18.2 64.8 21 -4.3 24.2
16:50 1025 30.27 854 25.22 18.5 65.3 21 -4 24.8
16:55 1025 30.27 854 25.22 18.6 65.4 21 -3.8 25.2
17:00 1025 30.27 854 25.22 17.8 64 24 -3 26.6
17:05 1025 30.27 854 25.22 17.2 63 22 -4.3 24.3
17:10 1025 30.27 854 25.22 17.3 63.2 23 -3.9 25.1
17:15 1025 30.27 854 25.22 17.8 64.1 22 -4.4 24.1
17:20 1025 30.27 854 25.22 18 64.4 22 -3.9 25
17:25 1025 30.27 854 25.22 18.8 65.8 22 -3.4 26
17:30 1025 30.27 854 25.22 18.7 65.7 22 -3.2 26.2
17:35 1025 30.27 854 25.22 18.6 65.5 23 -3 26.7
17:40 1025 30.27 854 25.22 17.3 63.1 24 -3.1 26.4
17:45 1025 30.27 854 25.22 16.4 61.6 25 -3.7 25.3
17:50 1025 30.27 854 25.22 16.2 61.2 26 -3.5 25.8
17:55 1025 30.27 854 25.22 16.4 61.5 25 -3.6 25.5
18:00 1025 30.27 854 25.22 17 62.6 23 -4.2 24.5
18:05 1025 30.27 854 25.22 17.2 62.9 24 -3.4 25.9
18:10 1025 30.27 854 25.22 16.4 61.5 24 -4.2 24.4
18:15 1025 30.27 854 25.22 16.2 61.1 24 -4.1 24.6
18:20 1025 30.27 854 25.22 16.7 62 23 -4.3 24.3
18:25 1025 30.27 854 25.22 17.2 62.9 23 -4.3 24.3
18:30 1025 30.27 854 25.22 17.2 63 23 -4.2 24.4
18:35 1025 30.27 854 25.22 17.4 63.2 22 -4.2 24.4
18:40 1025 30.27 854 25.22 16.7 62 23 -4.6 23.7
18:45 1025 30.27 854 25.22 16.3 61.4 23 -4.5 23.9
18:50 1025 30.27 854 25.22 17.1 62.8 22 -4.7 23.6
18:55 1025 30.27 854 25.22 17.3 63.1 23 -3.8 25.1
19:00 1025 30.27 854 25.22 17.2 62.9 22 -4.8 23.3
19:05 1025 30.27 854 25.22 16.8 62.3 22 -4.7 23.5
19:10 1025 30.27 854 25.22 16.7 62 23 -4.6 23.7
19:15 1025 30.27 854 25.22 16.7 62 23 -4.2 24.5
19:20 1025 30.27 854 25.22 16.6 61.8 23 -4.3 24.3
19:25 1025 30.27 854 25.22 16.3 61.3 23 -4.5 23.9
19:30 1025 30.27 854 25.22 16.1 60.9 24 -4.6 23.8
19:35 1025 30.27 854 25.22 16 60.8 23 -5.1 22.8
19:40 1025 30.27 854 25.22 16.2 61.2 22 -5.5 22
19:45 1025 30.27 854 25.22 16.7 62 22 -5.3 22.5
19:50 1025 30.27 854 25.22 16.7 62.1 22 -5.2 22.7
19:55 1025 30.27 854 25.22 16.7 62 22 -4.8 23.3
20:00 1025 30.27 854 25.22 16.1 61 23 -4.7 23.5
20:05 1025 30.27 854 25.22 15.6 60.1 24 -5.1 22.8
20:10 1025 30.27 854 25.22 15.4 59.7 24 -5.1 22.9
20:15 1025 30.27 854 25.22 15.3 59.5 24 -5 23
20:20 1025 30.27 854 25.22 15.2 59.3 25 -4.8 23.3
20:25 1025 30.27 854 25.22 15.1 59.2 25 -4.5 23.8
20:30 1025 30.27 854 25.22 15 59 26 -4.3 24.2
20:35 1025 30.27 854 25.22 14.9 58.9 27 -4 24.8
20:40 1025 30.27 854 25.22 14.8 58.6 27 -4 24.9
20:45 1025 30.27 854 25.22 14.7 58.5 28 -3.6 25.6
20:50 1025 30.27 854 25.22 14.6 58.3 28 -3.6 25.5
20:55 1025 30.27 854 25.22 14.4 58 28 -3.9 25
21:00 1025 30.27 854 25.22 14.2 57.5 29 -3.6 25.6
21:05 1025 30.27 854 25.22 13.8 56.9 29 -3.7 25.4
21:10 1025 30.27 854 25.22 13.6 56.5 32 -2.9 26.8
21:15 1025 30.27 854 25.22 13.2 55.7 35 -1.9 28.5
21:20 1025 30.27 854 25.22 12.9 55.2 36 -1.6 29.1
21:25 1025 30.27 854 25.22 12.6 54.6 38 -1.3 29.7
21:30 1025 30.27 854 25.22 12.2 54 40 -0.8 30.6
21:35 1025 30.27 854 25.22 11.8 53.2 42 -0.7 30.7
21:40 1025 30.27 854 25.22 11.5 52.8 42 -0.7 30.7
21:45 1025 30.27 854 25.22 11.3 52.4 43 -0.8 30.5
21:50 1025 30.27 854 25.22 11.2 52.2 42 -1 30.1
21:55 1025 30.27 854 25.22 11.2 52.2 43 -1 30.2
22:00 1025 30.27 854 25.22 11.2 52.2 42 -1.2 29.8
22:05 1025 30.27 854 25.22 11.3 52.3 42 -1.2 29.9
22:10 1025 30.27 854 25.22 11.3 52.3 43 -0.9 30.3
22:15 1025 30.27 854 25.22 11.1 51.9 43 -0.9 30.4
22:20 1025 30.27 854 25.22 10.8 51.4 45 -0.6 30.9
22:25 1025 30.27 854 25.22 10.5 50.9 50 0.4 32.7
22:30 1025 30.27 854 25.22 10.5 50.8 45 -1 30.3
22:35 1025 30.27 854 25.22 10.3 50.5 47 -0.6 30.9
22:40 1025 30.27 854 25.22 9.9 49.7 49 -0.4 31.2
22:45 1025 30.27 854 25.22 9.7 49.4 54 1 33.8
22:50 1025 30.27 854 25.22 9.3 48.8 51 -0.4 31.3
22:55 1025 30.27 854 25.22 9.3 48.7 50 -0.5 31
23:00 1025 30.27 854 25.22 9 48.1 52 -0.4 31.3
23:05 1025 30.27 854 25.22 8.7 47.6 53 -0.3 31.4
23:10 1025 30.27 854 25.22 8.5 47.3 55 -0.1 31.9
23:15 1025 30.27 854 25.22 8.1 46.6 57 0.1 32.1
23:20 1025 30.27 854 25.22 7.8 46 58 0.1 32.1
23:25 1025 30.27 854 25.22 7.8 46 55 -0.7 30.8
23:30 1025 30.27 854 25.22 8.7 47.6 49 -1.4 29.4
23:35 1025 30.27 854 25.22 9.2 48.6 47 -1.5 29.2
23:40 1025 30.27 854 25.22 8.8 47.9 51 -0.7 30.8
23:45 1025 30.27 854 25.22 8 46.4 55 -0.6 31
23:50 1025 30.27 854 25.22 7.7 45.9 54 -0.9 30.3
23:55 1025 30.27 855 25.25 8 46.4 52 -1.3 29.7
24:00 1025 30.27 855 25.25 8.2 46.7 53 -0.8 30.5